Time;durP1;ratioP1;P1;durP2;ratioP2;P2;SDS_P1;SDS_P2;PMS_P1;PMS_P2;Temp;Humidity;BMP_temperature;BMP_pressure;BME280_temperature;BME280_humidity;BME280_pressure;Samples;Min_cycle;Max_cycle;Signal;HPM_P1;HPM_P2
2021/07/11 00:01:08;;;;;;;7.93;2.47;;;20.20;99.90;;;;;;5134406;27;20211;-65
2021/07/11 00:03:35;;;;;;;2.30;2.10;;;20.20;99.90;;;;;;5134018;27;20227;-65
2021/07/11 00:06:01;;;;;;;5.00;2.40;;;20.20;99.90;;;;;;5132903;27;20220;-65
2021/07/11 00:08:29;;;;;;;5.00;2.50;;;20.20;99.90;;;;;;5133777;27;20210;-66
2021/07/11 00:10:56;;;;;;;3.22;2.63;;;20.20;99.90;;;;;;5133829;27;20559;-66
2021/07/11 00:13:23;;;;;;;2.90;2.28;;;20.20;99.90;;;;;;5133689;27;20227;-66
2021/07/11 00:15:49;;;;;;;2.95;2.30;;;20.10;99.90;;;;;;5134010;27;20215;-66
2021/07/11 00:18:16;;;;;;;4.80;2.40;;;20.10;99.90;;;;;;5133608;27;20670;-65
2021/07/11 00:20:43;;;;;;;3.47;2.40;;;20.10;99.90;;;;;;5133676;27;20210;-66
2021/07/11 00:23:09;;;;;;;3.08;2.40;;;20.10;99.90;;;;;;5133447;27;20248;-65
2021/07/11 00:25:38;;;;;;;6.25;2.30;;;20.10;99.90;;;;;;5133395;27;20207;-65
2021/07/11 00:28:05;;;;;;;2.72;2.03;;;20.10;99.90;;;;;;5133756;27;20606;-65
2021/07/11 00:30:31;;;;;;;3.90;2.00;;;20.10;99.90;;;;;;5133792;27;20207;-66
2021/07/11 00:32:58;;;;;;;3.00;1.90;;;20.10;99.90;;;;;;5133646;27;20216;-65
2021/07/11 00:35:25;;;;;;;4.95;2.03;;;20.00;99.90;;;;;;5133208;27;20263;-66
2021/07/11 00:37:52;;;;;;;2.50;2.08;;;20.00;99.90;;;;;;5133245;27;20218;-66
2021/07/11 00:40:19;;;;;;;3.28;1.80;;;20.00;99.90;;;;;;5133746;27;20210;-65
2021/07/11 00:42:47;;;;;;;4.15;2.08;;;20.00;99.90;;;;;;5133296;27;20723;-66
2021/07/11 00:45:14;;;;;;;2.75;2.33;;;20.00;99.90;;;;;;5133351;27;20292;-66
2021/07/11 00:47:42;;;;;;;3.58;2.00;;;20.00;99.90;;;;;;5133316;27;20203;-66
2021/07/11 00:50:12;;;;;;;3.22;1.80;;;19.90;99.90;;;;;;5133099;27;20207;-66
2021/07/11 00:52:39;;;;;;;2.80;1.90;;;19.90;99.90;;;;;;5132933;27;20632;-65
2021/07/11 00:55:07;;;;;;;3.28;1.92;;;19.90;99.90;;;;;;5133229;27;20779;-66
2021/07/11 00:57:34;;;;;;;2.30;1.98;;;19.90;99.90;;;;;;5135844;27;20207;-65
2021/07/11 01:00:05;;;;;;;2.17;1.77;;;19.90;99.90;;;;;;5133679;27;20214;-65
2021/07/11 01:02:36;;;;;;;2.95;1.70;;;19.90;99.90;;;;;;5133543;27;20210;-66
2021/07/11 01:05:06;;;;;;;2.70;1.63;;;19.70;99.90;;;;;;5132447;27;20781;-66
2021/07/11 01:07:37;;;;;;;2.17;1.63;;;19.70;99.90;;;;;;5132881;27;20207;-65
2021/07/11 01:10:07;;;;;;;7.20;1.80;;;19.60;99.90;;;;;;5132651;27;20206;-65
2021/07/11 01:12:40;;;;;;;3.90;1.52;;;19.50;99.90;;;;;;5132543;27;20609;-66
2021/07/11 01:15:10;;;;;;;2.00;1.75;;;19.50;99.90;;;;;;5132553;27;20227;-65
2021/07/11 01:17:37;;;;;;;3.22;1.70;;;19.50;99.90;;;;;;5132317;27;20202;-66
2021/07/11 01:20:18;;;;;;;1.80;1.70;;;19.40;99.90;;;;;;5132409;27;20264;-65
2021/07/11 01:22:51;;;;;;;1.60;1.48;;;19.40;99.90;;;;;;5132607;27;20210;-65
2021/07/11 01:25:32;;;;;;;2.13;1.50;;;19.30;99.90;;;;;;5132150;27;20686;-66
2021/07/11 01:28:00;;;;;;;2.03;1.58;;;19.40;99.90;;;;;;5132205;27;20622;-65
2021/07/11 01:30:27;;;;;;;2.03;1.70;;;19.30;99.90;;;;;;5132200;27;20549;-65
2021/07/11 01:32:54;;;;;;;1.90;1.70;;;19.20;99.90;;;;;;5132329;27;20222;-65
2021/07/11 01:35:21;;;;;;;2.03;1.58;;;19.10;99.90;;;;;;5132160;27;20206;-65
2021/07/11 01:37:48;;;;;;;2.03;1.67;;;19.10;99.90;;;;;;5132315;27;20579;-66
2021/07/11 01:40:17;;;;;;;1.75;1.60;;;19.10;99.90;;;;;;5132258;27;20202;-65
2021/07/11 01:42:46;;;;;;;1.85;1.50;;;19.10;99.90;;;;;;5132261;27;20588;-66
2021/07/11 01:45:14;;;;;;;2.63;1.70;;;19.00;99.90;;;;;;5133857;27;20223;-66
2021/07/11 01:47:41;;;;;;;1.80;1.67;;;19.00;99.90;;;;;;5132559;27;20255;-66
2021/07/11 01:50:10;;;;;;;1.65;1.40;;;18.90;99.90;;;;;;5132335;27;20210;-65
2021/07/11 01:52:37;;;;;;;2.08;1.40;;;19.00;99.90;;;;;;5132638;27;20198;-65
2021/07/11 01:55:07;;;;;;;3.15;1.48;;;19.00;99.90;;;;;;5132001;27;20238;-66
2021/07/11 01:57:34;;;;;;;2.88;1.67;;;19.10;99.90;;;;;;5132025;27;20228;-65
2021/07/11 02:00:04;;;;;;;2.83;1.48;;;19.00;99.90;;;;;;5132174;28;20222;-65
2021/07/11 02:02:31;;;;;;;2.97;1.77;;;19.10;99.90;;;;;;5132317;28;20211;-66
2021/07/11 02:04:57;;;;;;;4.63;1.80;;;19.10;99.90;;;;;;5132132;28;20219;-65
2021/07/11 02:07:24;;;;;;;2.65;1.20;;;19.20;99.90;;;;;;5132190;28;20202;-65
2021/07/11 02:09:51;;;;;;;1.92;1.75;;;19.10;99.90;;;;;;5131810;28;20206;-66
2021/07/11 02:12:18;;;;;;;2.47;1.70;;;19.20;99.90;;;;;;5132134;28;20210;-64
2021/07/11 02:14:49;;;;;;;3.70;1.85;;;19.10;99.90;;;;;;5131567;28;20234;-64
2021/07/11 02:17:21;;;;;;;2.88;1.73;;;19.10;99.90;;;;;;5132234;28;20666;-64
2021/07/11 02:19:49;;;;;;;2.63;1.90;;;19.20;99.90;;;;;;5131988;28;20210;-65
2021/07/11 02:22:16;;;;;;;4.00;1.92;;;19.20;99.90;;;;;;5131993;28;20252;-66
2021/07/11 02:24:45;;;;;;;3.28;2.00;;;19.10;99.90;;;;;;5132349;28;20284;-65
2021/07/11 02:27:12;;;;;;;3.15;1.70;;;19.10;99.90;;;;;;5132224;28;20243;-64
2021/07/11 02:29:42;;;;;;;1.80;1.70;;;19.10;99.90;;;;;;5134471;27;20206;-64
2021/07/11 02:32:10;;;;;;;2.42;1.67;;;19.00;99.90;;;;;;5135756;27;20202;-63
2021/07/11 02:34:40;;;;;;;6.13;3.35;;;19.10;99.90;;;;;;5135289;27;20686;-64
2021/07/11 02:37:09;;;;;;;5.10;1.73;;;19.10;99.90;;;;;;5135694;27;20210;-63
2021/07/11 02:39:37;;;;;;;3.92;1.90;;;19.10;99.90;;;;;;5135593;27;20211;-64
2021/07/11 02:42:07;;;;;;;2.65;2.00;;;19.00;99.90;;;;;;5135724;27;20206;-64
2021/07/11 02:44:36;;;;;;;2.10;1.70;;;19.00;99.90;;;;;;5135488;27;20257;-64
2021/07/11 02:47:09;;;;;;;2.70;1.85;;;19.00;99.90;;;;;;5135350;27;20251;-64
2021/07/11 02:49:39;;;;;;;2.03;1.55;;;19.00;99.90;;;;;;5135320;27;20203;-64
2021/07/11 02:52:08;;;;;;;1.65;1.55;;;18.90;99.90;;;;;;5135561;27;20203;-64
2021/07/11 02:54:41;;;;;;;3.20;2.10;;;18.90;99.90;;;;;;5135085;27;20846;-64
2021/07/11 02:57:10;;;;;;;4.00;2.20;;;18.80;99.90;;;;;;5135151;27;20209;-64
2021/07/11 02:59:37;;;;;;;4.85;2.80;;;18.80;99.90;;;;;;5136188;27;20227;-63
2021/07/11 03:02:07;;;;;;;5.78;3.67;;;18.80;99.90;;;;;;5136557;27;20203;-63
2021/07/11 03:04:39;;;;;;;3.05;2.10;;;18.80;99.90;;;;;;5135171;27;20733;-64
2021/07/11 03:07:06;;;;;;;2.13;1.92;;;18.80;99.90;;;;;;5135258;27;20618;-64
2021/07/11 03:09:33;;;;;;;2.55;2.35;;;18.70;99.90;;;;;;5134999;27;20210;-64
2021/07/11 03:12:01;;;;;;;3.45;1.85;;;18.70;99.90;;;;;;5135102;27;20255;-64
2021/07/11 03:14:29;;;;;;;5.47;3.10;;;18.70;99.90;;;;;;5134658;27;20605;-64
2021/07/11 03:16:57;;;;;;;3.78;3.17;;;18.70;99.90;;;;;;5135273;27;20206;-64
2021/07/11 03:19:26;;;;;;;4.38;2.10;;;18.80;99.90;;;;;;5135157;27;20234;-65
2021/07/11 03:21:55;;;;;;;4.40;3.58;;;18.80;99.90;;;;;;5135050;27;20213;-64
2021/07/11 03:24:24;;;;;;;2.22;1.80;;;18.80;99.90;;;;;;5134996;27;20787;-65
2021/07/11 03:26:53;;;;;;;5.13;2.00;;;18.80;99.90;;;;;;5134717;27;20298;-65
2021/07/11 03:29:32;;;;;;;2.47;2.17;;;18.80;99.90;;;;;;5134735;27;20249;-66
2021/07/11 03:32:00;;;;;;;2.90;1.77;;;18.90;99.90;;;;;;5134900;27;20202;-65
2021/07/11 03:34:29;;;;;;;1.80;1.55;;;18.90;99.90;;;;;;5134334;27;20284;-66
2021/07/11 03:37:00;;;;;;;7.38;3.53;;;18.90;99.90;;;;;;5134933;27;20259;-65
2021/07/11 03:39:28;;;;;;;3.97;1.90;;;18.90;99.90;;;;;;5134743;27;20198;-65
2021/07/11 03:41:57;;;;;;;6.65;4.10;;;18.90;99.90;;;;;;5134951;27;20283;-66
2021/07/11 03:44:28;;;;;;;2.10;1.80;;;18.90;99.90;;;;;;5134436;27;20267;-63
2021/07/11 03:46:56;;;;;;;2.00;1.65;;;18.90;99.90;;;;;;5134721;27;20207;-65
2021/07/11 03:49:23;;;;;;;3.45;1.70;;;18.90;99.90;;;;;;5134413;27;20199;-65
2021/07/11 03:51:51;;;;;;;3.88;2.63;;;19.00;99.90;;;;;;5134670;27;20210;-63
2021/07/11 03:54:20;;;;;;;1.70;1.50;;;18.90;99.90;;;;;;5134556;27;20727;-65
2021/07/11 03:56:49;;;;;;;2.03;1.58;;;18.90;99.90;;;;;;5134663;27;20207;-66
2021/07/11 03:59:18;;;;;;;3.10;1.75;;;18.90;99.90;;;;;;5134332;27;20199;-64
2021/07/11 04:01:46;;;;;;;2.65;2.03;;;18.90;99.90;;;;;;5134727;27;20205;-65
2021/07/11 04:04:16;;;;;;;2.65;1.85;;;18.80;99.90;;;;;;5133839;27;20268;-65
2021/07/11 04:06:46;;;;;;;1.83;1.55;;;18.90;99.90;;;;;;5134126;27;20257;-66
2021/07/11 04:09:18;;;;;;;3.28;1.70;;;18.90;99.90;;;;;;5134188;27;20214;-65
2021/07/11 04:11:46;;;;;;;3.42;1.98;;;18.90;99.90;;;;;;5133971;27;20290;-64
2021/07/11 04:14:15;;;;;;;4.85;1.60;;;18.90;99.90;;;;;;5133301;27;20613;-65
2021/07/11 04:16:45;;;;;;;1.95;1.45;;;18.80;99.90;;;;;;5133890;27;20259;-65
2021/07/11 04:19:13;;;;;;;2.63;2.05;;;18.80;99.90;;;;;;5133587;27;20468;-66
2021/07/11 04:21:40;;;;;;;2.05;1.80;;;18.80;99.90;;;;;;5133791;27;20226;-65
2021/07/11 04:24:07;;;;;;;2.90;2.20;;;18.80;99.90;;;;;;5133331;27;20276;-66
2021/07/11 04:26:36;;;;;;;2.33;1.60;;;18.80;99.90;;;;;;5133578;27;20666;-65
2021/07/11 04:29:04;;;;;;;6.22;1.58;;;18.80;99.90;;;;;;5133516;27;20202;-64
2021/07/11 04:31:31;;;;;;;3.00;1.80;;;18.80;99.90;;;;;;5133827;27;20601;-65
2021/07/11 04:34:04;;;;;;;3.15;1.67;;;18.80;99.90;;;;;;5133270;27;20235;-66
2021/07/11 04:36:31;;;;;;;2.97;1.50;;;18.90;99.90;;;;;;5133441;27;20282;-65
2021/07/11 04:38:57;;;;;;;2.90;1.60;;;18.90;99.90;;;;;;5133303;27;20217;-64
2021/07/11 04:41:24;;;;;;;1.73;1.60;;;19.00;99.90;;;;;;5133545;27;20211;-65
2021/07/11 04:43:51;;;;;;;1.67;1.50;;;19.10;99.90;;;;;;5132944;27;20222;-65
2021/07/11 04:46:19;;;;;;;2.05;1.70;;;19.20;99.90;;;;;;5133146;27;20199;-65
2021/07/11 04:48:46;;;;;;;4.05;1.83;;;19.20;99.90;;;;;;5133307;27;20199;-65
2021/07/11 04:51:12;;;;;;;2.22;1.88;;;19.30;99.90;;;;;;5132727;27;20207;-65
2021/07/11 04:53:39;;;;;;;3.95;3.28;;;19.40;99.90;;;;;;5132892;27;20233;-65
2021/07/11 04:56:06;;;;;;;3.70;2.80;;;19.40;99.90;;;;;;5133022;27;20210;-65
2021/07/11 04:58:32;;;;;;;3.35;1.90;;;19.50;99.90;;;;;;5132619;27;20814;-65
2021/07/11 05:00:59;;;;;;;3.33;2.10;;;19.50;99.90;;;;;;5132853;27;20666;-65
2021/07/11 05:03:27;;;;;;;2.25;1.83;;;19.50;99.90;;;;;;5132990;27;20600;-65
2021/07/11 05:05:54;;;;;;;2.00;1.73;;;19.60;99.90;;;;;;5133045;27;20222;-65
2021/07/11 05:08:20;;;;;;;2.70;2.05;;;19.70;99.90;;;;;;5132892;27;20616;-65
2021/07/11 05:10:47;;;;;;;2.65;1.92;;;19.80;99.90;;;;;;5132691;27;20626;-65
2021/07/11 05:13:14;;;;;;;2.47;1.77;;;19.90;99.90;;;;;;5132647;27;20643;-66
2021/07/11 05:15:41;;;;;;;3.10;1.73;;;20.00;99.90;;;;;;5132494;27;20227;-66
2021/07/11 05:18:07;;;;;;;2.28;1.67;;;20.10;99.90;;;;;;5132619;27;20217;-65
2021/07/11 05:20:35;;;;;;;1.65;1.30;;;20.10;99.90;;;;;;5132702;27;20210;-65
2021/07/11 05:23:02;;;;;;;2.40;1.80;;;20.10;99.90;;;;;;5132324;27;20199;-66
2021/07/11 05:25:32;;;;;;;5.18;2.20;;;20.10;99.90;;;;;;5132816;27;20202;-65
2021/07/11 05:27:59;;;;;;;1.73;1.40;;;20.10;99.90;;;;;;5132504;27;20199;-66
2021/07/11 05:30:25;;;;;;;3.58;1.58;;;20.10;99.90;;;;;;5132819;27;20199;-65
2021/07/11 05:32:52;;;;;;;1.88;1.55;;;20.20;99.90;;;;;;5132433;27;20244;-66
2021/07/11 05:35:19;;;;;;;2.17;1.83;;;20.30;99.90;;;;;;5132127;27;20283;-66
2021/07/11 05:37:47;;;;;;;2.38;2.13;;;20.30;99.90;;;;;;5132388;27;20233;-65
2021/07/11 05:40:16;;;;;;;4.03;2.28;;;20.40;99.90;;;;;;5132436;27;20207;-65
2021/07/11 05:42:43;;;;;;;2.08;1.70;;;20.50;99.90;;;;;;5132873;27;20227;-65
2021/07/11 05:45:10;;;;;;;2.72;1.38;;;20.60;99.90;;;;;;5132368;27;20503;-66
2021/07/11 05:47:38;;;;;;;3.47;1.92;;;20.80;99.90;;;;;;5132336;27;20259;-66
2021/07/11 05:50:07;;;;;;;1.67;1.42;;;20.90;99.90;;;;;;5132622;27;20294;-66
2021/07/11 05:52:33;;;;;;;3.13;2.17;;;21.00;99.90;;;;;;5132111;27;20203;-66
2021/07/11 05:55:02;;;;;;;2.90;1.77;;;21.00;99.90;;;;;;5131774;27;20223;-66
2021/07/11 05:57:30;;;;;;;3.95;1.85;;;21.00;99.90;;;;;;5132956;28;20221;-66
2021/07/11 05:59:56;;;;;;;4.35;1.70;;;21.00;99.90;;;;;;5132227;28;20718;-66
2021/07/11 06:02:23;;;;;;;2.22;1.75;;;21.10;99.90;;;;;;5132534;27;20203;-66
2021/07/11 06:04:50;;;;;;;3.42;2.92;;;21.10;99.90;;;;;;5135507;27;20219;-65
2021/07/11 06:07:17;;;;;;;2.03;1.83;;;21.20;99.90;;;;;;5136425;27;20705;-65
2021/07/11 06:09:43;;;;;;;5.32;3.20;;;21.20;99.90;;;;;;5136343;27;20206;-66
2021/07/11 06:12:11;;;;;;;4.32;2.00;;;21.10;99.90;;;;;;5136378;27;20297;-66
2021/07/11 06:14:38;;;;;;;3.55;1.80;;;21.10;99.90;;;;;;5136226;27;20223;-66
2021/07/11 06:17:05;;;;;;;6.20;2.05;;;21.00;99.90;;;;;;5136374;27;20203;-66
2021/07/11 06:19:32;;;;;;;2.70;1.95;;;21.00;99.90;;;;;;5136139;27;20203;-65
2021/07/11 06:21:59;;;;;;;2.33;1.77;;;21.00;99.90;;;;;;5136476;27;20229;-66
2021/07/11 06:24:26;;;;;;;2.40;1.73;;;21.00;99.90;;;;;;5136235;27;20230;-66
2021/07/11 06:26:52;;;;;;;4.55;3.60;;;21.00;99.90;;;;;;5136899;27;20209;-64
2021/07/11 06:29:20;;;;;;;3.08;2.10;;;21.10;99.90;;;;;;5136671;27;20199;-66
2021/07/11 06:31:47;;;;;;;3.55;2.70;;;21.20;99.90;;;;;;5136893;27;20203;-66
2021/07/11 06:34:14;;;;;;;5.38;1.98;;;21.30;99.90;;;;;;5136399;27;20230;-66
2021/07/11 06:36:40;;;;;;;1.85;1.65;;;21.60;99.90;;;;;;5136670;27;20717;-65
2021/07/11 06:39:07;;;;;;;3.65;1.77;;;21.90;99.90;;;;;;5137103;27;20647;-66
2021/07/11 06:41:35;;;;;;;4.28;1.88;;;22.20;99.90;;;;;;5136253;27;20213;-66
2021/07/11 06:44:01;;;;;;;5.72;1.80;;;22.70;99.90;;;;;;5136090;27;20223;-65
2021/07/11 06:46:29;;;;;;;2.17;1.60;;;23.60;99.90;;;;;;5135949;27;20199;-66
2021/07/11 06:48:56;;;;;;;6.00;2.10;;;25.50;99.90;;;;;;5135506;27;20202;-66
2021/07/11 06:51:23;;;;;;;1.58;1.27;;;27.40;99.90;;;;;;5135736;27;20750;-64
2021/07/11 06:53:49;;;;;;;3.58;1.50;;;29.50;99.90;;;;;;5135485;27;20222;-66
2021/07/11 06:56:16;;;;;;;1.88;1.65;;;31.60;99.20;;;;;;5135545;27;20219;-66
2021/07/11 06:58:43;;;;;;;5.22;1.50;;;33.40;94.20;;;;;;5134829;27;20702;-65
2021/07/11 07:01:09;;;;;;;3.63;1.20;;;34.00;85.30;;;;;;5135260;27;20248;-66
2021/07/11 07:03:37;;;;;;;4.80;1.50;;;34.00;81.50;;;;;;5134867;27;20233;-66
2021/07/11 07:06:07;;;;;;;2.17;1.90;;;33.50;78.90;;;;;;5135146;27;20203;-66
2021/07/11 07:08:34;;;;;;;3.28;1.00;;;32.60;81.90;;;;;;5135087;27;20675;-66
2021/07/11 07:11:01;;;;;;;1.92;1.35;;;32.10;83.90;;;;;;5135150;27;20198;-66
2021/07/11 07:13:27;;;;;;;2.92;1.92;;;31.10;86.00;;;;;;5134856;27;20233;-66
2021/07/11 07:15:54;;;;;;;4.05;1.58;;;30.70;89.40;;;;;;5134465;27;20222;-65
2021/07/11 07:18:21;;;;;;;2.22;1.83;;;30.00;90.20;;;;;;5134783;27;20256;-65
2021/07/11 07:20:49;;;;;;;1.85;1.67;;;29.40;91.00;;;;;;5135169;27;20203;-65
2021/07/11 07:23:15;;;;;;;1.77;1.67;;;29.00;92.00;;;;;;5134896;27;20234;-65
2021/07/11 07:25:42;;;;;;;2.22;1.48;;;28.90;92.00;;;;;;5134684;27;20199;-66
2021/07/11 07:28:11;;;;;;;2.42;1.60;;;28.60;92.80;;;;;;5135226;27;20203;-68
2021/07/11 07:30:38;;;;;;;2.83;1.75;;;28.20;93.10;;;;;;5134642;27;20297;-62
2021/07/11 07:33:05;;;;;;;4.53;2.70;;;28.70;92.30;;;;;;5134552;27;20262;-62
2021/07/11 07:35:32;;;;;;;3.90;2.33;;;29.30;91.50;;;;;;5134473;27;20237;-62
2021/07/11 07:38:00;;;;;;;2.97;1.70;;;29.60;91.10;;;;;;5134421;27;20207;-62
2021/07/11 07:40:26;;;;;;;3.00;1.90;;;29.60;90.60;;;;;;5134341;27;20210;-62
2021/07/11 07:42:53;;;;;;;2.58;1.70;;;29.20;90.30;;;;;;5134048;27;20214;-62
2021/07/11 07:45:20;;;;;;;3.47;1.67;;;28.70;90.90;;;;;;5134054;27;20205;-62
2021/07/11 07:47:47;;;;;;;5.10;1.45;;;28.10;91.90;;;;;;5134333;27;20214;-62
2021/07/11 07:50:15;;;;;;;2.38;1.50;;;27.60;92.60;;;;;;5134333;27;20207;-62
2021/07/11 07:52:42;;;;;;;2.50;1.63;;;27.30;92.60;;;;;;5134367;27;20203;-62
2021/07/11 07:55:11;;;;;;;3.25;2.42;;;27.40;93.30;;;;;;5134029;27;20227;-62
2021/07/11 07:57:39;;;;;;;3.67;1.30;;;28.40;91.50;;;;;;5134120;27;20206;-62
2021/07/11 08:00:07;;;;;;;1.67;1.50;;;29.00;90.90;;;;;;5134225;27;20206;-62
2021/07/11 08:02:34;;;;;;;2.72;1.30;;;30.00;86.80;;;;;;5134207;27;20262;-62
2021/07/11 08:05:01;;;;;;;3.75;1.70;;;30.20;86.10;;;;;;5133976;27;20219;-62
2021/07/11 08:07:27;;;;;;;1.70;1.58;;;31.40;82.70;;;;;;5134241;27;20206;-62
2021/07/11 08:09:54;;;;;;;2.83;1.75;;;31.80;81.20;;;;;;5133913;27;20287;-62
2021/07/11 08:12:22;;;;;;;2.97;1.30;;;32.70;77.20;;;;;;5133651;27;20203;-62
2021/07/11 08:14:50;;;;;;;3.13;1.77;;;33.70;72.90;;;;;;5133387;27;20314;-62
2021/07/11 08:17:17;;;;;;;3.35;1.67;;;34.30;69.70;;;;;;5133684;27;20203;-62
2021/07/11 08:19:43;;;;;;;3.55;1.80;;;33.70;69.80;;;;;;5133677;27;20203;-62
2021/07/11 08:22:10;;;;;;;2.03;1.38;;;34.10;68.60;;;;;;5133436;27;20203;-62
2021/07/11 08:24:37;;;;;;;2.25;1.33;;;34.60;67.30;;;;;;5133235;27;20242;-62
2021/07/11 08:27:04;;;;;;;1.70;1.38;;;36.00;61.90;;;;;;5132467;27;20206;-62
2021/07/11 08:29:32;;;;;;;2.25;1.30;;;36.20;59.10;;;;;;5133149;27;20743;-62
2021/07/11 08:31:59;;;;;;;2.25;1.00;;;36.00;59.00;;;;;;5133386;27;20206;-62
2021/07/11 08:34:26;;;;;;;2.33;1.48;;;35.20;59.90;;;;;;5133237;27;20248;-62
2021/07/11 08:36:59;;;;;;;3.70;1.60;;;34.20;61.40;;;;;;5133171;27;20226;-62
2021/07/11 08:39:26;;;;;;;1.40;1.30;;;33.60;63.50;;;;;;5133461;27;20217;-62
2021/07/11 08:41:55;;;;;;;1.77;1.58;;;33.90;62.10;;;;;;5133292;27;20206;-62
2021/07/11 08:44:22;;;;;;;2.15;1.25;;;34.20;60.30;;;;;;5133134;27;20227;-62
2021/07/11 08:46:50;;;;;;;3.00;1.10;;;34.20;60.60;;;;;;5133420;27;20221;-62
2021/07/11 08:49:17;;;;;;;1.35;1.23;;;34.40;59.70;;;;;;5132930;27;20207;-62
2021/07/11 08:51:44;;;;;;;1.63;1.40;;;33.40;61.30;;;;;;5133365;27;20545;-62
2021/07/11 08:54:12;;;;;;;1.90;1.15;;;32.00;64.70;;;;;;5132509;27;20275;-62
2021/07/11 08:56:39;;;;;;;2.63;1.20;;;30.80;69.10;;;;;;5132850;27;20778;-62
2021/07/11 08:59:05;;;;;;;3.47;1.33;;;30.20;71.50;;;;;;5132708;27;20727;-62
2021/07/11 09:01:32;;;;;;;5.28;1.30;;;29.50;71.70;;;;;;5133027;27;20701;-62
2021/07/11 09:04:03;;;;;;;4.13;1.63;;;29.20;74.30;;;;;;5132600;27;20275;-62
2021/07/11 09:06:40;;;;;;;2.30;1.40;;;29.00;75.00;;;;;;5132745;27;20577;-63
2021/07/11 09:09:07;;;;;;;3.47;1.20;;;29.10;74.00;;;;;;5132477;27;20723;-62
2021/07/11 09:11:45;;;;;;;3.33;2.47;;;28.90;74.50;;;;;;5132621;27;20255;-62
2021/07/11 09:14:17;;;;;;;3.03;1.38;;;28.60;76.80;;;;;;5132744;27;20226;-63
2021/07/11 09:16:45;;;;;;;3.80;1.55;;;28.50;78.10;;;;;;5132891;27;20227;-62
2021/07/11 09:19:22;;;;;;;2.70;2.00;;;28.40;79.10;;;;;;5132399;27;20263;-62
2021/07/11 09:21:53;;;;;;;3.60;1.33;;;28.00;81.10;;;;;;5132643;27;20207;-62
2021/07/11 09:24:20;;;;;;;1.98;1.52;;;27.80;82.10;;;;;;5132969;27;20286;-63
2021/07/11 09:26:50;;;;;;;1.60;1.30;;;27.80;82.50;;;;;;5132193;27;20195;-63
2021/07/11 09:29:25;;;;;;;2.88;1.73;;;27.90;81.40;;;;;;5132154;27;20214;-63
2021/07/11 09:31:52;;;;;;;3.05;1.70;;;27.60;83.40;;;;;;5132187;27;20211;-63
2021/07/11 09:34:23;;;;;;;4.05;1.55;;;27.40;84.50;;;;;;5132322;27;20226;-63
2021/07/11 09:37:12;;;;;;;1.50;1.17;;;27.40;85.40;;;;;;5132070;27;20323;-63
2021/07/11 09:39:48;;;;;;;1.38;1.20;;;28.00;82.60;;;;;;5132187;27;20206;-63
2021/07/11 09:42:32;;;;;;;3.92;1.30;;;28.60;78.50;;;;;;5132573;27;20214;-63
2021/07/11 09:45:00;;;;;;;2.92;1.48;;;29.20;77.60;;;;;;5132042;27;20227;-63
2021/07/11 09:47:29;;;;;;;2.28;1.02;;;29.70;76.50;;;;;;5132134;27;20228;-63
2021/07/11 09:50:04;;;;;;;1.90;1.10;;;30.10;74.80;;;;;;5131891;27;20228;-63
2021/07/11 09:52:32;;;;;;;1.25;1.10;;;30.30;74.00;;;;;;5131845;27;20669;-63
2021/07/11 09:55:02;;;;;;;2.90;0.93;;;30.50;72.90;;;;;;5131881;27;20231;-63
2021/07/11 09:57:33;;;;;;;4.40;1.50;;;30.50;73.20;;;;;;5132127;27;20595;-63
2021/07/11 10:00:01;;;;;;;2.28;1.10;;;30.40;73.00;;;;;;5132137;27;20256;-63
2021/07/11 10:02:28;;;;;;;2.72;1.30;;;30.50;73.50;;;;;;5131971;28;20214;-61
2021/07/11 10:04:55;;;;;;;1.95;1.23;;;30.20;71.90;;;;;;5131517;28;20227;-61
2021/07/11 10:07:23;;;;;;;4.18;1.20;;;29.60;73.90;;;;;;5131778;28;20612;-61
2021/07/11 10:09:50;;;;;;;2.13;1.30;;;29.40;75.00;;;;;;5131874;28;20259;-61
2021/07/11 10:12:16;;;;;;;1.23;1.13;;;29.10;74.40;;;;;;5131932;28;20255;-63
2021/07/11 10:14:43;;;;;;;1.92;1.25;;;28.90;75.30;;;;;;5132021;28;20227;-62
2021/07/11 10:17:10;;;;;;;4.88;1.30;;;28.70;75.70;;;;;;5131809;28;20275;-62
2021/07/11 10:19:37;;;;;;;2.47;1.33;;;28.60;77.10;;;;;;5131849;28;20211;-62
2021/07/11 10:22:11;;;;;;;1.02;0.90;;;28.60;75.90;;;;;;5131775;28;20198;-62
2021/07/11 10:24:43;;;;;;;2.25;1.20;;;28.70;75.40;;;;;;5131736;28;20238;-62
2021/07/11 10:27:22;;;;;;;2.75;1.30;;;28.60;75.40;;;;;;5131852;28;20198;-62
2021/07/11 10:29:51;;;;;;;3.42;1.10;;;28.70;76.80;;;;;;5131506;28;20563;-61
2021/07/11 10:32:23;;;;;;;3.63;1.40;;;28.90;74.40;;;;;;5131888;28;20238;-61
2021/07/11 10:34:49;;;;;;;2.30;1.10;;;28.90;74.30;;;;;;5131866;28;20603;-61
2021/07/11 10:37:20;;;;;;;1.45;1.15;;;29.00;71.70;;;;;;5131700;28;20599;-62
2021/07/11 10:39:52;;;;;;;1.42;1.10;;;29.10;72.40;;;;;;5131587;28;20235;-62
2021/07/11 10:42:28;;;;;;;1.50;1.30;;;29.50;71.30;;;;;;5131558;28;20207;-62
2021/07/11 10:45:03;;;;;;;4.47;1.38;;;29.80;70.80;;;;;;5132002;28;20226;-62
2021/07/11 10:47:30;;;;;;;2.85;1.67;;;30.10;70.20;;;;;;5131837;28;20206;-63
2021/07/11 10:49:56;;;;;;;2.20;1.30;;;30.40;69.80;;;;;;5133065;27;20264;-61
2021/07/11 10:52:25;;;;;;;2.08;1.30;;;30.80;68.80;;;;;;5135484;27;20289;-62
2021/07/11 10:54:55;;;;;;;3.60;1.27;;;31.20;68.20;;;;;;5134889;27;20222;-61
2021/07/11 10:57:30;;;;;;;2.92;1.25;;;31.40;67.60;;;;;;5135130;27;20717;-62
2021/07/11 11:00:09;;;;;;;7.22;1.73;;;31.40;67.50;;;;;;5135035;27;20255;-62
2021/07/11 11:02:35;;;;;;;7.10;1.90;;;31.40;67.20;;;;;;5135143;27;20203;-62
2021/07/11 11:05:05;;;;;;;1.95;1.20;;;31.40;66.20;;;;;;5134996;27;20269;-62
2021/07/11 11:07:43;;;;;;;2.95;1.38;;;31.40;64.50;;;;;;5135474;27;20199;-62
2021/07/11 11:10:30;;;;;;;1.95;1.10;;;31.20;65.10;;;;;;5135243;27;20626;-61
2021/07/11 11:13:11;;;;;;;2.60;1.30;;;30.90;66.60;;;;;;5134884;27;20206;-62
2021/07/11 11:15:41;;;;;;;2.13;1.00;;;31.00;65.70;;;;;;5134651;27;20213;-62
2021/07/11 11:18:26;;;;;;;1.38;1.05;;;30.70;65.00;;;;;;5135180;27;20214;-62
2021/07/11 11:20:55;;;;;;;1.50;1.00;;;30.60;65.30;;;;;;5135063;27;20248;-61
2021/07/11 11:23:23;;;;;;;3.28;1.50;;;30.20;64.60;;;;;;5134656;27;20309;-61
2021/07/11 11:25:52;;;;;;;3.30;1.27;;;30.20;64.60;;;;;;5134734;27;20662;-61
2021/07/11 11:28:29;;;;;;;1.55;1.13;;;30.20;63.60;;;;;;5134513;27;20303;-61
2021/07/11 11:31:12;;;;;;;1.08;0.93;;;30.10;63.50;;;;;;5134851;27;20202;-62
2021/07/11 11:33:53;;;;;;;3.03;1.20;;;29.80;61.20;;;;;;5132840;27;20317;-62
2021/07/11 11:36:23;;;;;;;1.98;1.77;;;29.10;64.70;;;;;;5134383;27;20636;-61
2021/07/11 11:38:50;;;;;;;1.73;1.40;;;28.70;67.00;;;;;;5134192;27;20210;-62
2021/07/11 11:41:20;;;;;;;2.58;1.80;;;28.70;66.80;;;;;;5134320;27;20335;-61
2021/07/11 11:43:48;;;;;;;3.35;1.50;;;28.70;68.10;;;;;;5134184;27;20276;-61
2021/07/11 11:46:28;;;;;;;1.85;1.30;;;28.60;69.40;;;;;;5134453;27;20233;-61
2021/07/11 11:48:56;;;;;;;3.00;1.38;;;28.40;71.20;;;;;;5134131;27;20221;-62
2021/07/11 11:51:23;;;;;;;2.17;1.50;;;28.50;71.00;;;;;;5134501;27;20210;-61
2021/07/11 11:53:50;;;;;;;8.15;2.70;;;28.60;70.00;;;;;;5134069;27;20229;-61
2021/07/11 11:56:16;;;;;;;3.35;1.50;;;28.80;70.40;;;;;;5134080;27;20219;-61
2021/07/11 11:58:44;;;;;;;2.00;1.50;;;29.00;70.30;;;;;;5134215;27;20211;-61
2021/07/11 12:01:13;;;;;;;2.70;1.70;;;29.00;70.50;;;;;;5132864;27;20207;-61
2021/07/11 12:03:41;;;;;;;2.60;1.70;;;29.20;69.40;;;;;;5133725;27;20226;-61
2021/07/11 12:06:10;;;;;;;2.20;1.67;;;29.50;69.00;;;;;;5133835;27;20723;-61
2021/07/11 12:08:38;;;;;;;2.67;1.73;;;29.80;68.90;;;;;;5133718;27;20666;-61
2021/07/11 12:11:07;;;;;;;2.70;1.33;;;30.10;68.30;;;;;;5133872;27;20214;-61
2021/07/11 12:13:34;;;;;;;3.40;1.45;;;30.30;66.70;;;;;;5133490;27;20223;-61
2021/07/11 12:16:07;;;;;;;1.27;1.13;;;30.20;66.20;;;;;;5133584;27;20199;-62
2021/07/11 12:18:47;;;;;;;6.65;1.98;;;29.90;66.90;;;;;;5133703;27;20659;-62
2021/07/11 12:21:20;;;;;;;3.17;1.58;;;29.80;68.00;;;;;;5133831;27;20207;-62
2021/07/11 12:23:58;;;;;;;2.45;1.20;;;30.00;64.60;;;;;;5133562;27;20235;-62
2021/07/11 12:26:26;;;;;;;2.65;1.33;;;30.30;65.90;;;;;;5133635;27;20380;-63
2021/07/11 12:28:54;;;;;;;1.20;1.10;;;30.70;66.30;;;;;;5133564;27;20255;-62
2021/07/11 12:31:22;;;;;;;1.50;1.25;;;30.90;65.20;;;;;;5133553;27;20199;-63
2021/07/11 12:33:56;;;;;;;1.27;1.17;;;31.00;63.20;;;;;;5133498;27;20226;-63
2021/07/11 12:36:22;;;;;;;1.35;0.93;;;31.30;62.20;;;;;;5133476;27;20226;-63
2021/07/11 12:38:49;;;;;;;1.27;1.15;;;31.30;61.40;;;;;;5133128;27;20203;-63
2021/07/11 12:41:16;;;;;;;2.53;1.40;;;31.20;61.80;;;;;;5133166;27;20221;-62
2021/07/11 12:43:48;;;;;;;3.08;1.17;;;31.20;61.30;;;;;;5132922;27;20223;-61
2021/07/11 12:46:17;;;;;;;2.95;1.50;;;31.40;61.00;;;;;;5133119;27;20202;-62
2021/07/11 12:48:47;;;;;;;1.33;1.10;;;31.50;59.90;;;;;;5132759;27;20666;-61
2021/07/11 12:51:17;;;;;;;2.17;1.30;;;31.30;60.40;;;;;;5132898;27;20563;-62
2021/07/11 12:53:44;;;;;;;2.38;1.35;;;31.10;62.10;;;;;;5132808;27;20268;-61
2021/07/11 12:56:13;;;;;;;1.50;1.40;;;31.00;61.80;;;;;;5132485;27;20564;-63